sensor_id;sensor_type;location;lat;lon;timestamp;P1;durP1;ratioP1;P2;durP2;ratioP2
74833;SDS011;63361;52.384;20.930;2022-12-18T00:01:04;22.63;;;10.50;;
74833;SDS011;63361;52.384;20.930;2022-12-18T00:03:38;30.40;;;13.23;;
74833;SDS011;63361;52.384;20.930;2022-12-18T00:06:03;31.33;;;11.33;;
74833;SDS011;63361;52.384;20.930;2022-12-18T00:08:29;25.00;;;11.68;;
74833;SDS011;63361;52.384;20.930;2022-12-18T00:10:54;27.57;;;12.23;;
74833;SDS011;63361;52.384;20.930;2022-12-18T00:13:20;31.43;;;13.03;;
74833;SDS011;63361;52.384;20.930;2022-12-18T00:15:45;31.30;;;11.93;;
74833;SDS011;63361;52.384;20.930;2022-12-18T00:18:11;27.83;;;10.80;;
74833;SDS011;63361;52.384;20.930;2022-12-18T00:20:37;21.97;;;9.17;;
74833;SDS011;63361;52.384;20.930;2022-12-18T00:23:04;22.63;;;11.40;;
74833;SDS011;63361;52.384;20.930;2022-12-18T00:25:32;24.63;;;10.47;;
74833;SDS011;63361;52.384;20.930;2022-12-18T00:27:59;27.75;;;10.77;;
74833;SDS011;63361;52.384;20.930;2022-12-18T00:30:25;31.87;;;12.00;;
74833;SDS011;63361;52.384;20.930;2022-12-18T00:32:50;29.33;;;11.13;;
74833;SDS011;63361;52.384;20.930;2022-12-18T00:35:15;22.30;;;9.93;;
74833;SDS011;63361;52.384;20.930;2022-12-18T00:37:41;22.13;;;9.57;;
74833;SDS011;63361;52.384;20.930;2022-12-18T00:40:06;27.57;;;10.90;;
74833;SDS011;63361;52.384;20.930;2022-12-18T00:42:32;29.85;;;11.52;;
74833;SDS011;63361;52.384;20.930;2022-12-18T00:45:16;21.15;;;10.15;;
74833;SDS011;63361;52.384;20.930;2022-12-18T00:47:42;19.27;;;9.50;;
74833;SDS011;63361;52.384;20.930;2022-12-18T00:50:07;19.20;;;10.00;;
74833;SDS011;63361;52.384;20.930;2022-12-18T00:52:34;18.73;;;8.30;;
74833;SDS011;63361;52.384;20.930;2022-12-18T00:54:59;25.13;;;11.90;;
74833;SDS011;63361;52.384;20.930;2022-12-18T00:57:24;26.43;;;10.87;;
74833;SDS011;63361;52.384;20.930;2022-12-18T00:59:50;27.45;;;10.85;;
74833;SDS011;63361;52.384;20.930;2022-12-18T01:02:15;25.37;;;10.63;;
74833;SDS011;63361;52.384;20.930;2022-12-18T01:04:40;30.63;;;12.77;;
74833;SDS011;63361;52.384;20.930;2022-12-18T01:07:06;21.17;;;9.83;;
74833;SDS011;63361;52.384;20.930;2022-12-18T01:09:31;26.33;;;12.53;;
74833;SDS011;63361;52.384;20.930;2022-12-18T01:11:56;28.33;;;10.93;;
74833;SDS011;63361;52.384;20.930;2022-12-18T01:14:22;25.97;;;9.17;;
74833;SDS011;63361;52.384;20.930;2022-12-18T01:16:47;29.00;;;10.90;;
74833;SDS011;63361;52.384;20.930;2022-12-18T01:19:12;22.73;;;10.70;;
74833;SDS011;63361;52.384;20.930;2022-12-18T01:21:37;22.42;;;10.25;;
74833;SDS011;63361;52.384;20.930;2022-12-18T01:24:03;24.07;;;10.57;;
74833;SDS011;63361;52.384;20.930;2022-12-18T01:26:29;21.20;;;9.53;;
74833;SDS011;63361;52.384;20.930;2022-12-18T01:28:57;25.02;;;9.90;;
74833;SDS011;63361;52.384;20.930;2022-12-18T01:31:23;23.03;;;9.67;;
74833;SDS011;63361;52.384;20.930;2022-12-18T01:33:51;21.65;;;9.68;;
74833;SDS011;63361;52.384;20.930;2022-12-18T01:36:18;24.45;;;9.52;;
74833;SDS011;63361;52.384;20.930;2022-12-18T01:38:48;22.70;;;9.07;;
74833;SDS011;63361;52.384;20.930;2022-12-18T01:41:14;20.83;;;8.83;;
74833;SDS011;63361;52.384;20.930;2022-12-18T01:43:45;19.33;;;9.43;;
74833;SDS011;63361;52.384;20.930;2022-12-18T01:46:13;23.08;;;9.05;;
74833;SDS011;63361;52.384;20.930;2022-12-18T01:48:40;28.90;;;9.68;;
74833;SDS011;63361;52.384;20.930;2022-12-18T01:51:06;21.58;;;9.98;;
74833;SDS011;63361;52.384;20.930;2022-12-18T01:53:33;17.60;;;7.93;;
74833;SDS011;63361;52.384;20.930;2022-12-18T01:55:59;19.90;;;9.55;;
74833;SDS011;63361;52.384;20.930;2022-12-18T01:58:28;21.53;;;8.60;;
74833;SDS011;63361;52.384;20.930;2022-12-18T02:01:04;17.88;;;8.80;;
74833;SDS011;63361;52.384;20.930;2022-12-18T02:03:30;17.40;;;8.77;;
74833;SDS011;63361;52.384;20.930;2022-12-18T02:11:40;19.67;;;9.38;;
74833;SDS011;63361;52.384;20.930;2022-12-18T02:16:52;18.90;;;7.70;;
74833;SDS011;63361;52.384;20.930;2022-12-18T02:24:35;19.50;;;8.88;;
74833;SDS011;63361;52.384;20.930;2022-12-18T02:27:06;19.20;;;7.60;;
74833;SDS011;63361;52.384;20.930;2022-12-18T02:29:48;20.58;;;7.68;;
74833;SDS011;63361;52.384;20.930;2022-12-18T02:32:22;13.30;;;6.83;;
74833;SDS011;63361;52.384;20.930;2022-12-18T02:34:52;22.52;;;9.38;;
74833;SDS011;63361;52.384;20.930;2022-12-18T02:37:20;16.35;;;8.30;;
74833;SDS011;63361;52.384;20.930;2022-12-18T02:39:48;23.52;;;8.88;;
74833;SDS011;63361;52.384;20.930;2022-12-18T02:42:17;15.43;;;8.18;;
74833;SDS011;63361;52.384;20.930;2022-12-18T02:44:44;22.93;;;9.27;;
74833;SDS011;63361;52.384;20.930;2022-12-18T02:47:13;19.55;;;8.65;;
74833;SDS011;63361;52.384;20.930;2022-12-18T02:58:09;17.97;;;8.67;;
74833;SDS011;63361;52.384;20.930;2022-12-18T03:00:59;21.20;;;9.05;;
74833;SDS011;63361;52.384;20.930;2022-12-18T03:03:30;18.58;;;8.52;;
74833;SDS011;63361;52.384;20.930;2022-12-18T03:06:02;17.63;;;8.00;;
74833;SDS011;63361;52.384;20.930;2022-12-18T03:08:33;16.38;;;8.05;;
74833;SDS011;63361;52.384;20.930;2022-12-18T03:11:07;17.93;;;8.80;;
74833;SDS011;63361;52.384;20.930;2022-12-18T03:16:10;23.65;;;9.02;;
74833;SDS011;63361;52.384;20.930;2022-12-18T03:21:17;20.75;;;7.50;;
74833;SDS011;63361;52.384;20.930;2022-12-18T03:23:47;18.53;;;8.17;;
74833;SDS011;63361;52.384;20.930;2022-12-18T03:26:17;17.95;;;7.63;;
74833;SDS011;63361;52.384;20.930;2022-12-18T03:28:49;18.25;;;8.07;;
74833;SDS011;63361;52.384;20.930;2022-12-18T03:31:22;20.52;;;8.32;;
74833;SDS011;63361;52.384;20.930;2022-12-18T03:33:55;11.18;;;5.32;;
74833;SDS011;63361;52.384;20.930;2022-12-18T03:36:23;14.10;;;7.10;;
74833;SDS011;63361;52.384;20.930;2022-12-18T03:38:49;20.40;;;7.30;;
74833;SDS011;63361;52.384;20.930;2022-12-18T03:41:17;16.87;;;7.20;;
74833;SDS011;63361;52.384;20.930;2022-12-18T03:47:06;19.00;;;8.13;;
74833;SDS011;63361;52.384;20.930;2022-12-18T03:50:02;16.58;;;7.32;;
74833;SDS011;63361;52.384;20.930;2022-12-18T03:52:36;15.80;;;7.70;;
74833;SDS011;63361;52.384;20.930;2022-12-18T03:55:10;16.97;;;8.17;;
74833;SDS011;63361;52.384;20.930;2022-12-18T03:57:37;19.60;;;7.95;;
74833;SDS011;63361;52.384;20.930;2022-12-18T04:00:08;20.70;;;8.45;;
74833;SDS011;63361;52.384;20.930;2022-12-18T04:02:37;17.75;;;8.23;;
74833;SDS011;63361;52.384;20.930;2022-12-18T04:05:08;18.73;;;8.65;;
74833;SDS011;63361;52.384;20.930;2022-12-18T04:07:35;16.90;;;8.23;;
74833;SDS011;63361;52.384;20.930;2022-12-18T04:10:03;18.85;;;7.57;;
74833;SDS011;63361;52.384;20.930;2022-12-18T04:12:31;21.60;;;8.15;;
74833;SDS011;63361;52.384;20.930;2022-12-18T04:14:57;17.87;;;8.10;;
74833;SDS011;63361;52.384;20.930;2022-12-18T04:17:22;22.77;;;9.93;;
74833;SDS011;63361;52.384;20.930;2022-12-18T04:19:47;27.65;;;9.75;;
74833;SDS011;63361;52.384;20.930;2022-12-18T04:22:13;25.47;;;10.00;;
74833;SDS011;63361;52.384;20.930;2022-12-18T04:24:38;37.83;;;11.20;;
74833;SDS011;63361;52.384;20.930;2022-12-18T04:27:04;46.63;;;16.43;;
74833;SDS011;63361;52.384;20.930;2022-12-18T04:29:29;52.40;;;17.60;;
74833;SDS011;63361;52.384;20.930;2022-12-18T04:31:55;43.93;;;13.47;;
74833;SDS011;63361;52.384;20.930;2022-12-18T04:34:20;23.20;;;10.30;;
74833;SDS011;63361;52.384;20.930;2022-12-18T04:36:46;28.40;;;10.25;;
74833;SDS011;63361;52.384;20.930;2022-12-18T04:39:11;18.03;;;8.17;;
74833;SDS011;63361;52.384;20.930;2022-12-18T04:41:37;23.80;;;9.50;;
74833;SDS011;63361;52.384;20.930;2022-12-18T04:44:02;23.30;;;9.40;;
74833;SDS011;63361;52.384;20.930;2022-12-18T04:46:28;28.87;;;10.70;;
74833;SDS011;63361;52.384;20.930;2022-12-18T04:48:53;31.47;;;9.27;;
74833;SDS011;63361;52.384;20.930;2022-12-18T04:51:18;22.60;;;9.27;;
74833;SDS011;63361;52.384;20.930;2022-12-18T04:53:44;19.37;;;7.83;;
74833;SDS011;63361;52.384;20.930;2022-12-18T04:56:10;26.00;;;10.97;;
74833;SDS011;63361;52.384;20.930;2022-12-18T04:58:38;26.00;;;10.13;;
74833;SDS011;63361;52.384;20.930;2022-12-18T05:01:04;24.13;;;8.57;;
74833;SDS011;63361;52.384;20.930;2022-12-18T05:03:30;17.73;;;7.45;;
74833;SDS011;63361;52.384;20.930;2022-12-18T05:05:56;22.10;;;8.93;;
74833;SDS011;63361;52.384;20.930;2022-12-18T05:08:22;22.80;;;9.10;;
74833;SDS011;63361;52.384;20.930;2022-12-18T05:10:48;24.60;;;8.48;;
74833;SDS011;63361;52.384;20.930;2022-12-18T05:13:13;26.10;;;10.37;;
74833;SDS011;63361;52.384;20.930;2022-12-18T05:15:38;28.17;;;10.23;;
74833;SDS011;63361;52.384;20.930;2022-12-18T05:18:04;20.67;;;9.17;;
74833;SDS011;63361;52.384;20.930;2022-12-18T05:20:30;20.85;;;8.93;;
74833;SDS011;63361;52.384;20.930;2022-12-18T05:22:55;23.33;;;10.23;;
74833;SDS011;63361;52.384;20.930;2022-12-18T05:25:21;27.10;;;9.17;;
74833;SDS011;63361;52.384;20.930;2022-12-18T05:27:47;25.45;;;9.45;;
74833;SDS011;63361;52.384;20.930;2022-12-18T05:30:13;25.90;;;10.47;;
74833;SDS011;63361;52.384;20.930;2022-12-18T05:32:39;27.98;;;10.63;;
74833;SDS011;63361;52.384;20.930;2022-12-18T05:35:06;25.97;;;10.73;;
74833;SDS011;63361;52.384;20.930;2022-12-18T05:37:33;28.52;;;10.27;;
74833;SDS011;63361;52.384;20.930;2022-12-18T05:39:59;25.13;;;9.90;;
74833;SDS011;63361;52.384;20.930;2022-12-18T05:42:24;27.48;;;10.40;;
74833;SDS011;63361;52.384;20.930;2022-12-18T05:44:50;29.23;;;11.27;;
74833;SDS011;63361;52.384;20.930;2022-12-18T05:47:15;31.40;;;11.47;;
74833;SDS011;63361;52.384;20.930;2022-12-18T05:49:40;30.00;;;11.10;;
74833;SDS011;63361;52.384;20.930;2022-12-18T05:52:06;28.07;;;11.17;;
74833;SDS011;63361;52.384;20.930;2022-12-18T05:54:31;32.58;;;12.68;;
74833;SDS011;63361;52.384;20.930;2022-12-18T05:56:57;26.87;;;12.00;;
74833;SDS011;63361;52.384;20.930;2022-12-18T05:59:23;27.42;;;11.65;;
74833;SDS011;63361;52.384;20.930;2022-12-18T06:01:48;24.47;;;11.13;;
74833;SDS011;63361;52.384;20.930;2022-12-18T06:04:14;27.25;;;11.00;;
74833;SDS011;63361;52.384;20.930;2022-12-18T06:06:40;35.20;;;12.57;;
74833;SDS011;63361;52.384;20.930;2022-12-18T06:09:05;31.83;;;12.93;;
74833;SDS011;63361;52.384;20.930;2022-12-18T06:11:33;31.90;;;11.82;;
74833;SDS011;63361;52.384;20.930;2022-12-18T06:14:00;27.80;;;11.60;;
74833;SDS011;63361;52.384;20.930;2022-12-18T06:16:26;25.35;;;11.00;;
74833;SDS011;63361;52.384;20.930;2022-12-18T06:18:52;28.27;;;11.40;;
74833;SDS011;63361;52.384;20.930;2022-12-18T06:21:18;33.83;;;12.35;;
74833;SDS011;63361;52.384;20.930;2022-12-18T06:23:43;27.87;;;11.33;;
74833;SDS011;63361;52.384;20.930;2022-12-18T06:26:09;33.17;;;11.67;;
74833;SDS011;63361;52.384;20.930;2022-12-18T06:28:36;29.75;;;11.40;;
74833;SDS011;63361;52.384;20.930;2022-12-18T06:31:05;31.87;;;11.67;;
74833;SDS011;63361;52.384;20.930;2022-12-18T06:33:31;34.47;;;13.25;;
74833;SDS011;63361;52.384;20.930;2022-12-18T06:36:00;35.78;;;13.20;;
74833;SDS011;63361;52.384;20.930;2022-12-18T06:38:27;34.77;;;12.67;;
74833;SDS011;63361;52.384;20.930;2022-12-18T06:40:52;42.08;;;15.20;;
74833;SDS011;63361;52.384;20.930;2022-12-18T06:43:18;36.37;;;12.53;;
74833;SDS011;63361;52.384;20.930;2022-12-18T06:45:43;40.27;;;14.23;;
74833;SDS011;63361;52.384;20.930;2022-12-18T06:48:08;48.63;;;17.70;;
74833;SDS011;63361;52.384;20.930;2022-12-18T06:50:34;40.97;;;15.40;;
74833;SDS011;63361;52.384;20.930;2022-12-18T06:52:59;43.35;;;15.50;;
74833;SDS011;63361;52.384;20.930;2022-12-18T06:55:25;41.73;;;13.97;;
74833;SDS011;63361;52.384;20.930;2022-12-18T06:57:50;44.77;;;14.63;;
74833;SDS011;63361;52.384;20.930;2022-12-18T07:00:16;43.40;;;16.13;;
74833;SDS011;63361;52.384;20.930;2022-12-18T07:02:41;47.55;;;18.58;;
74833;SDS011;63361;52.384;20.930;2022-12-18T07:05:07;45.50;;;15.13;;
74833;SDS011;63361;52.384;20.930;2022-12-18T07:07:33;46.38;;;16.23;;
74833;SDS011;63361;52.384;20.930;2022-12-18T07:09:59;43.07;;;16.43;;
74833;SDS011;63361;52.384;20.930;2022-12-18T07:12:26;49.72;;;16.33;;
74833;SDS011;63361;52.384;20.930;2022-12-18T07:14:51;44.70;;;15.87;;
74833;SDS011;63361;52.384;20.930;2022-12-18T07:17:17;47.83;;;16.53;;
74833;SDS011;63361;52.384;20.930;2022-12-18T07:19:42;38.53;;;14.30;;
74833;SDS011;63361;52.384;20.930;2022-12-18T07:22:07;36.20;;;14.43;;
74833;SDS011;63361;52.384;20.930;2022-12-18T07:24:33;47.13;;;15.13;;
74833;SDS011;63361;52.384;20.930;2022-12-18T07:26:59;43.95;;;13.63;;
74833;SDS011;63361;52.384;20.930;2022-12-18T07:29:24;40.40;;;14.63;;
74833;SDS011;63361;52.384;20.930;2022-12-18T07:31:50;47.73;;;16.30;;
74833;SDS011;63361;52.384;20.930;2022-12-18T07:34:16;43.97;;;17.23;;
74833;SDS011;63361;52.384;20.930;2022-12-18T07:36:42;44.67;;;16.60;;
74833;SDS011;63361;52.384;20.930;2022-12-18T07:39:07;40.53;;;15.07;;
74833;SDS011;63361;52.384;20.930;2022-12-18T07:41:33;43.60;;;14.90;;
74833;SDS011;63361;52.384;20.930;2022-12-18T07:43:58;43.50;;;14.80;;
74833;SDS011;63361;52.384;20.930;2022-12-18T07:46:23;39.97;;;14.97;;
74833;SDS011;63361;52.384;20.930;2022-12-18T07:48:49;47.27;;;16.67;;
74833;SDS011;63361;52.384;20.930;2022-12-18T07:51:14;37.67;;;14.17;;
74833;SDS011;63361;52.384;20.930;2022-12-18T07:53:40;43.30;;;15.07;;
74833;SDS011;63361;52.384;20.930;2022-12-18T07:56:07;45.05;;;15.27;;
74833;SDS011;63361;52.384;20.930;2022-12-18T07:58:35;47.80;;;16.63;;
74833;SDS011;63361;52.384;20.930;2022-12-18T08:01:05;48.85;;;17.52;;
74833;SDS011;63361;52.384;20.930;2022-12-18T08:03:31;45.20;;;16.10;;
74833;SDS011;63361;52.384;20.930;2022-12-18T08:06:00;47.78;;;16.58;;
74833;SDS011;63361;52.384;20.930;2022-12-18T08:08:28;50.40;;;17.42;;
74833;SDS011;63361;52.384;20.930;2022-12-18T08:10:54;53.05;;;16.55;;
74833;SDS011;63361;52.384;20.930;2022-12-18T08:13:20;55.03;;;17.63;;
74833;SDS011;63361;52.384;20.930;2022-12-18T08:15:45;45.40;;;15.50;;
74833;SDS011;63361;52.384;20.930;2022-12-18T08:18:11;51.67;;;16.63;;
74833;SDS011;63361;52.384;20.930;2022-12-18T08:20:36;47.57;;;15.60;;
74833;SDS011;63361;52.384;20.930;2022-12-18T08:23:02;47.05;;;16.40;;
74833;SDS011;63361;52.384;20.930;2022-12-18T08:25:27;47.40;;;16.27;;
74833;SDS011;63361;52.384;20.930;2022-12-18T08:27:52;49.77;;;17.67;;
74833;SDS011;63361;52.384;20.930;2022-12-18T08:30:18;48.85;;;17.75;;
74833;SDS011;63361;52.384;20.930;2022-12-18T08:32:44;50.13;;;16.60;;
74833;SDS011;63361;52.384;20.930;2022-12-18T08:35:09;46.07;;;16.13;;
74833;SDS011;63361;52.384;20.930;2022-12-18T08:37:36;50.25;;;17.77;;
74833;SDS011;63361;52.384;20.930;2022-12-18T08:40:02;47.23;;;16.73;;
74833;SDS011;63361;52.384;20.930;2022-12-18T08:42:28;56.10;;;18.95;;
74833;SDS011;63361;52.384;20.930;2022-12-18T08:45:11;49.03;;;17.55;;
74833;SDS011;63361;52.384;20.930;2022-12-18T08:47:37;88.77;;;43.40;;
74833;SDS011;63361;52.384;20.930;2022-12-18T08:50:02;64.63;;;27.17;;
74833;SDS011;63361;52.384;20.930;2022-12-18T08:52:28;53.97;;;20.17;;
74833;SDS011;63361;52.384;20.930;2022-12-18T08:54:53;43.03;;;17.90;;
74833;SDS011;63361;52.384;20.930;2022-12-18T08:57:18;45.03;;;18.73;;
74833;SDS011;63361;52.384;20.930;2022-12-18T08:59:45;46.40;;;17.73;;
74833;SDS011;63361;52.384;20.930;2022-12-18T09:02:11;47.17;;;16.47;;
74833;SDS011;63361;52.384;20.930;2022-12-18T09:04:36;49.53;;;18.23;;
74833;SDS011;63361;52.384;20.930;2022-12-18T09:07:02;44.87;;;17.57;;
74833;SDS011;63361;52.384;20.930;2022-12-18T09:09:27;50.50;;;16.80;;
74833;SDS011;63361;52.384;20.930;2022-12-18T09:11:52;40.17;;;13.87;;
74833;SDS011;63361;52.384;20.930;2022-12-18T09:14:18;40.30;;;14.83;;
74833;SDS011;63361;52.384;20.930;2022-12-18T09:16:43;44.90;;;17.50;;
74833;SDS011;63361;52.384;20.930;2022-12-18T09:19:08;50.27;;;17.60;;
74833;SDS011;63361;52.384;20.930;2022-12-18T09:21:35;45.85;;;17.80;;
74833;SDS011;63361;52.384;20.930;2022-12-18T09:24:04;52.13;;;18.05;;
74833;SDS011;63361;52.384;20.930;2022-12-18T09:26:30;52.08;;;18.90;;
74833;SDS011;63361;52.384;20.930;2022-12-18T09:28:56;45.10;;;16.70;;
74833;SDS011;63361;52.384;20.930;2022-12-18T09:31:22;49.23;;;17.73;;
74833;SDS011;63361;52.384;20.930;2022-12-18T09:33:49;48.80;;;17.38;;
74833;SDS011;63361;52.384;20.930;2022-12-18T09:36:15;46.30;;;18.17;;
74833;SDS011;63361;52.384;20.930;2022-12-18T09:38:42;51.13;;;18.33;;
74833;SDS011;63361;52.384;20.930;2022-12-18T09:43:56;48.38;;;18.38;;
74833;SDS011;63361;52.384;20.930;2022-12-18T09:46:30;51.90;;;18.77;;
74833;SDS011;63361;52.384;20.930;2022-12-18T09:49:02;44.90;;;18.05;;
74833;SDS011;63361;52.384;20.930;2022-12-18T09:51:33;53.38;;;18.60;;
74833;SDS011;63361;52.384;20.930;2022-12-18T09:54:05;52.73;;;20.00;;
74833;SDS011;63361;52.384;20.930;2022-12-18T09:56:40;69.53;;;21.63;;
74833;SDS011;63361;52.384;20.930;2022-12-18T09:59:14;63.35;;;20.80;;
74833;SDS011;63361;52.384;20.930;2022-12-18T10:01:46;44.75;;;17.80;;
74833;SDS011;63361;52.384;20.930;2022-12-18T10:04:11;52.90;;;19.03;;
74833;SDS011;63361;52.384;20.930;2022-12-18T10:09:37;48.38;;;17.85;;
74833;SDS011;63361;52.384;20.930;2022-12-18T10:12:15;49.67;;;19.40;;
74833;SDS011;63361;52.384;20.930;2022-12-18T10:17:50;45.03;;;17.63;;
74833;SDS011;63361;52.384;20.930;2022-12-18T10:20:45;44.22;;;17.63;;
74833;SDS011;63361;52.384;20.930;2022-12-18T10:28:24;59.60;;;20.40;;
74833;SDS011;63361;52.384;20.930;2022-12-18T10:30:51;56.13;;;19.63;;
74833;SDS011;63361;52.384;20.930;2022-12-18T10:33:18;50.30;;;18.95;;
74833;SDS011;63361;52.384;20.930;2022-12-18T10:35:45;43.23;;;17.70;;
74833;SDS011;63361;52.384;20.930;2022-12-18T10:41:03;36.55;;;15.07;;
74833;SDS011;63361;52.384;20.930;2022-12-18T10:43:34;39.92;;;18.40;;
74833;SDS011;63361;52.384;20.930;2022-12-18T10:46:03;42.55;;;16.92;;
74833;SDS011;63361;52.384;20.930;2022-12-18T10:51:46;57.22;;;18.23;;
74833;SDS011;63361;52.384;20.930;2022-12-18T10:54:05;51.50;;;17.83;;
74833;SDS011;63361;52.384;20.930;2022-12-18T10:56:38;37.90;;;16.00;;
74833;SDS011;63361;52.384;20.930;2022-12-18T10:59:04;47.90;;;17.87;;
74833;SDS011;63361;52.384;20.930;2022-12-18T11:02:23;43.38;;;16.52;;
74833;SDS011;63361;52.384;20.930;2022-12-18T11:04:22;40.17;;;17.02;;
74833;SDS011;63361;52.384;20.930;2022-12-18T11:07:05;40.93;;;16.50;;
74833;SDS011;63361;52.384;20.930;2022-12-18T11:09:33;51.47;;;17.38;;
74833;SDS011;63361;52.384;20.930;2022-12-18T11:12:01;55.38;;;20.90;;
74833;SDS011;63361;52.384;20.930;2022-12-18T11:14:30;54.35;;;18.25;;
74833;SDS011;63361;52.384;20.930;2022-12-18T11:17:17;44.90;;;17.17;;
74833;SDS011;63361;52.384;20.930;2022-12-18T11:19:55;46.17;;;17.30;;
74833;SDS011;63361;52.384;20.930;2022-12-18T11:22:24;47.08;;;18.50;;
74833;SDS011;63361;52.384;20.930;2022-12-18T11:25:01;46.67;;;16.63;;
74833;SDS011;63361;52.384;20.930;2022-12-18T11:27:48;40.92;;;17.13;;
74833;SDS011;63361;52.384;20.930;2022-12-18T11:38:02;44.43;;;17.87;;
74833;SDS011;63361;52.384;20.930;2022-12-18T11:40:36;36.40;;;16.00;;
74833;SDS011;63361;52.384;20.930;2022-12-18T11:46:03;41.45;;;15.98;;
74833;SDS011;63361;52.384;20.930;2022-12-18T11:48:44;37.75;;;16.77;;
74833;SDS011;63361;52.384;20.930;2022-12-18T11:51:25;39.53;;;16.17;;
74833;SDS011;63361;52.384;20.930;2022-12-18T11:53:55;47.72;;;17.33;;
74833;SDS011;63361;52.384;20.930;2022-12-18T12:09:59;56.40;;;20.58;;
74833;SDS011;63361;52.384;20.930;2022-12-18T12:12:35;47.63;;;18.50;;
74833;SDS011;63361;52.384;20.930;2022-12-18T12:26:30;44.80;;;18.85;;
74833;SDS011;63361;52.384;20.930;2022-12-18T12:34:18;44.30;;;18.07;;
74833;SDS011;63361;52.384;20.930;2022-12-18T12:39:22;50.65;;;20.63;;
74833;SDS011;63361;52.384;20.930;2022-12-18T12:41:51;62.67;;;23.63;;
74833;SDS011;63361;52.384;20.930;2022-12-18T12:44:45;48.13;;;19.17;;
74833;SDS011;63361;52.384;20.930;2022-12-18T12:47:22;51.37;;;21.03;;
74833;SDS011;63361;52.384;20.930;2022-12-18T12:49:53;55.75;;;22.13;;
74833;SDS011;63361;52.384;20.930;2022-12-18T12:52:30;52.92;;;20.20;;
74833;SDS011;63361;52.384;20.930;2022-12-18T12:55:02;49.17;;;20.05;;
74833;SDS011;63361;52.384;20.930;2022-12-18T13:00:39;66.23;;;25.17;;
74833;SDS011;63361;52.384;20.930;2022-12-18T13:06:03;52.67;;;19.80;;
74833;SDS011;63361;52.384;20.930;2022-12-18T13:08:54;51.58;;;19.77;;
74833;SDS011;63361;52.384;20.930;2022-12-18T13:11:42;56.45;;;20.33;;
74833;SDS011;63361;52.384;20.930;2022-12-18T13:14:35;53.00;;;19.30;;
74833;SDS011;63361;52.384;20.930;2022-12-18T13:19:48;58.10;;;20.88;;
74833;SDS011;63361;52.384;20.930;2022-12-18T13:22:34;61.00;;;22.02;;
74833;SDS011;63361;52.384;20.930;2022-12-18T13:25:00;54.38;;;19.38;;
74833;SDS011;63361;52.384;20.930;2022-12-18T13:45:43;61.23;;;21.00;;
74833;SDS011;63361;52.384;20.930;2022-12-18T13:48:16;56.30;;;21.10;;
74833;SDS011;63361;52.384;20.930;2022-12-18T13:50:52;54.50;;;19.65;;
74833;SDS011;63361;52.384;20.930;2022-12-18T13:53:42;52.85;;;19.70;;
74833;SDS011;63361;52.384;20.930;2022-12-18T13:56:15;48.40;;;20.35;;
74833;SDS011;63361;52.384;20.930;2022-12-18T13:58:42;60.63;;;20.67;;
74833;SDS011;63361;52.384;20.930;2022-12-18T14:01:23;54.33;;;21.70;;
74833;SDS011;63361;52.384;20.930;2022-12-18T14:03:49;49.70;;;19.63;;
74833;SDS011;63361;52.384;20.930;2022-12-18T14:06:15;57.08;;;22.30;;
74833;SDS011;63361;52.384;20.930;2022-12-18T14:08:41;59.22;;;22.25;;
74833;SDS011;63361;52.384;20.930;2022-12-18T14:11:17;55.30;;;20.03;;
74833;SDS011;63361;52.384;20.930;2022-12-18T14:13:45;56.00;;;20.75;;
74833;SDS011;63361;52.384;20.930;2022-12-18T14:16:12;59.17;;;23.27;;
74833;SDS011;63361;52.384;20.930;2022-12-18T14:18:53;67.63;;;25.83;;
74833;SDS011;63361;52.384;20.930;2022-12-18T14:21:22;63.60;;;23.25;;
74833;SDS011;63361;52.384;20.930;2022-12-18T14:24:02;50.63;;;19.23;;
74833;SDS011;63361;52.384;20.930;2022-12-18T14:26:34;61.83;;;22.60;;
74833;SDS011;63361;52.384;20.930;2022-12-18T14:29:00;53.93;;;21.53;;
74833;SDS011;63361;52.384;20.930;2022-12-18T14:31:42;57.13;;;20.75;;
74833;SDS011;63361;52.384;20.930;2022-12-18T14:34:08;60.50;;;21.87;;
74833;SDS011;63361;52.384;20.930;2022-12-18T14:36:40;56.40;;;20.23;;
74833;SDS011;63361;52.384;20.930;2022-12-18T14:39:13;58.73;;;20.67;;
74833;SDS011;63361;52.384;20.930;2022-12-18T14:41:42;57.10;;;20.67;;
74833;SDS011;63361;52.384;20.930;2022-12-18T14:44:07;61.07;;;21.13;;
74833;SDS011;63361;52.384;20.930;2022-12-18T14:46:44;60.47;;;21.60;;
74833;SDS011;63361;52.384;20.930;2022-12-18T14:51:52;61.17;;;21.13;;
74833;SDS011;63361;52.384;20.930;2022-12-18T14:54:20;56.70;;;20.15;;
74833;SDS011;63361;52.384;20.930;2022-12-18T14:57:06;55.67;;;21.38;;
74833;SDS011;63361;52.384;20.930;2022-12-18T14:59:44;52.97;;;19.47;;
74833;SDS011;63361;52.384;20.930;2022-12-18T15:02:17;61.45;;;20.15;;
74833;SDS011;63361;52.384;20.930;2022-12-18T15:04:46;57.47;;;20.17;;
74833;SDS011;63361;52.384;20.930;2022-12-18T15:09:38;56.47;;;21.20;;
74833;SDS011;63361;52.384;20.930;2022-12-18T15:12:05;54.90;;;19.73;;
74833;SDS011;63361;52.384;20.930;2022-12-18T15:14:57;56.50;;;19.90;;
74833;SDS011;63361;52.384;20.930;2022-12-18T15:17:23;70.27;;;25.40;;
74833;SDS011;63361;52.384;20.930;2022-12-18T15:19:50;55.60;;;20.52;;
74833;SDS011;63361;52.384;20.930;2022-12-18T15:24:45;51.92;;;19.60;;
74833;SDS011;63361;52.384;20.930;2022-12-18T15:32:32;43.42;;;16.67;;
74833;SDS011;63361;52.384;20.930;2022-12-18T15:35:18;51.80;;;19.20;;
74833;SDS011;63361;52.384;20.930;2022-12-18T15:37:45;44.28;;;15.88;;
74833;SDS011;63361;52.384;20.930;2022-12-18T15:40:12;67.67;;;20.30;;
74833;SDS011;63361;52.384;20.930;2022-12-18T15:42:38;65.95;;;17.95;;
74833;SDS011;63361;52.384;20.930;2022-12-18T15:45:22;54.85;;;18.73;;
74833;SDS011;63361;52.384;20.930;2022-12-18T15:47:48;51.67;;;18.17;;
74833;SDS011;63361;52.384;20.930;2022-12-18T15:50:13;60.53;;;20.07;;
74833;SDS011;63361;52.384;20.930;2022-12-18T15:52:41;51.17;;;18.27;;
74833;SDS011;63361;52.384;20.930;2022-12-18T15:55:12;54.28;;;19.88;;
74833;SDS011;63361;52.384;20.930;2022-12-18T15:58:01;61.30;;;18.88;;
74833;SDS011;63361;52.384;20.930;2022-12-18T16:00:27;51.93;;;18.20;;
74833;SDS011;63361;52.384;20.930;2022-12-18T16:02:52;49.25;;;19.02;;
74833;SDS011;63361;52.384;20.930;2022-12-18T16:05:18;55.73;;;19.00;;
74833;SDS011;63361;52.384;20.930;2022-12-18T16:07:46;59.05;;;18.80;;
74833;SDS011;63361;52.384;20.930;2022-12-18T16:10:12;53.50;;;17.20;;
74833;SDS011;63361;52.384;20.930;2022-12-18T16:12:38;48.05;;;17.42;;
74833;SDS011;63361;52.384;20.930;2022-12-18T16:15:04;55.60;;;19.70;;
74833;SDS011;63361;52.384;20.930;2022-12-18T16:17:30;49.92;;;20.17;;
74833;SDS011;63361;52.384;20.930;2022-12-18T16:19:55;54.00;;;17.53;;
74833;SDS011;63361;52.384;20.930;2022-12-18T16:22:21;49.33;;;17.30;;
74833;SDS011;63361;52.384;20.930;2022-12-18T16:24:49;81.55;;;18.48;;
74833;SDS011;63361;52.384;20.930;2022-12-18T16:27:15;54.20;;;20.27;;
74833;SDS011;63361;52.384;20.930;2022-12-18T16:29:41;56.90;;;17.90;;
74833;SDS011;63361;52.384;20.930;2022-12-18T16:32:14;55.77;;;20.13;;
74833;SDS011;63361;52.384;20.930;2022-12-18T16:34:44;46.67;;;17.85;;